Eurus Lima — A8MH9 — position and weather

sailwx.info

Track history (hours):
 
Tides and Currents Weather Stations Pressure Air Temp Water Temp Dewpoint Dewpoint Depression Visibility Wind Speed Wind Dir Waves Ship Positions

Eurus Lima (Liberia)

Last reported at 2014-Jul-03 08:33 UTC. Time now 2014-Jul-22 17:26 UTC.
Position N 25°17' W 080°03'.
Warning: this ship's position is 19 days out of date.

Type: Ship. MMSI: 636013342.

Date/timePositionNaut miles runAvg speedWind from/ knotsBaromVisibWave heightAir tempDewpointWater temp
2014-Jul-03 08:33N 25°17' W 080°03'1616.4
2014-Jul-03 07:33N 25°33' W 080°01'1818.0
2014-Jul-03 06:33N 25°51' W 080°02'1514.6
2014-Jul-03 05:33N 26°06' W 080°04'2 2.5
2014-Jul-03 04:33N 26°05' W 080°07'0 0.0
2014-Jul-03 03:30N 26°05' W 080°07'0 0.0
2014-Jul-03 02:23N 26°05' W 080°07'0 0.0
2014-Jul-03 01:32N 26°05' W 080°07'0 0.0
2014-Jul-03 00:26N 26°05' W 080°07'0 0.0
2014-Jul-02 23:31N 26°05' W 080°07'0 0.0
2014-Jul-02 22:28N 26°05' W 080°07'0 0.0
2014-Jul-02 21:33N 26°05' W 080°07'0 0.0
2014-Jul-02 20:30N 26°05' W 080°07'0 0.0
2014-Jul-02 19:23N 26°05' W 080°07'0 0.0
2014-Jul-02 18:32N 26°05' W 080°07'0 0.0
2014-Jul-02 17:26N 26°05' W 080°07'0 0.0
2014-Jul-02 16:31N 26°05' W 080°07'0 0.0
2014-Jul-02 15:28N 26°05' W 080°07'0 0.0
2014-Jul-02 14:21N 26°05' W 080°07'0 0.0
2014-Jul-02 13:30N 26°05' W 080°07'0 0.0
2014-Jul-02 12:20N 26°05' W 080°07'0 0.0
2014-Jul-02 11:26N 26°05' W 080°07'0 0.0
2014-Jul-02 10:26N 26°05' W 080°07'0 0.0
2014-Jul-02 09:31N 26°05' W 080°07'1 0.7
2014-Jul-02 08:34N 26°06' W 080°07'7 7.3
2014-Jul-02 07:33N 26°04' W 079°59'1313.2
2014-Jul-02 06:33N 25°58' W 079°46'4 3.5
2014-Jul-02 05:33N 25°55' W 079°46'3 2.6
2014-Jul-02 04:33N 25°53' W 079°48'3 2.7
2014-Jul-02 03:33N 25°50' W 079°50'3 2.9
2014-Jul-02 02:33N 25°48' W 079°51'4 3.9
2014-Jul-02 01:33N 25°45' W 079°53'4 3.7
2014-Jul-02 00:33N 25°41' W 079°55'1816.5
2014-Jul-01 23:29N 25°24' W 079°58'  
Track history (hours):
 
Tides and Currents Weather Stations Pressure Air Temp Water Temp Dewpoint Dewpoint Depression Visibility Wind Speed Wind Dir Waves Ship Positions

Eurus Lima (Liberia)

Last reported at 2014-Jul-03 08:33 UTC. Time now 2014-Jul-22 17:26 UTC.
Position N 25°17' W 080°03'.
Warning: this ship's position is 19 days out of date.

Type: Ship. MMSI: 636013342.

Date/timePositionNaut miles runAvg speedWind from/ knotsBaromVisibWave heightAir tempDewpointWater temp
2014-Jul-03 08:33N 25°17' W 080°03'1616.4
2014-Jul-03 07:33N 25°33' W 080°01'1818.0
2014-Jul-03 06:33N 25°51' W 080°02'1514.6
2014-Jul-03 05:33N 26°06' W 080°04'2 2.5
2014-Jul-03 04:33N 26°05' W 080°07'0 0.0
2014-Jul-03 03:30N 26°05' W 080°07'0 0.0
2014-Jul-03 02:23N 26°05' W 080°07'0 0.0
2014-Jul-03 01:32N 26°05' W 080°07'0 0.0
2014-Jul-03 00:26N 26°05' W 080°07'0 0.0
2014-Jul-02 23:31N 26°05' W 080°07'0 0.0
2014-Jul-02 22:28N 26°05' W 080°07'0 0.0
2014-Jul-02 21:33N 26°05' W 080°07'0 0.0
2014-Jul-02 20:30N 26°05' W 080°07'0 0.0
2014-Jul-02 19:23N 26°05' W 080°07'0 0.0
2014-Jul-02 18:32N 26°05' W 080°07'0 0.0
2014-Jul-02 17:26N 26°05' W 080°07'0 0.0
2014-Jul-02 16:31N 26°05' W 080°07'0 0.0
2014-Jul-02 15:28N 26°05' W 080°07'0 0.0
2014-Jul-02 14:21N 26°05' W 080°07'0 0.0
2014-Jul-02 13:30N 26°05' W 080°07'0 0.0
2014-Jul-02 12:20N 26°05' W 080°07'0 0.0
2014-Jul-02 11:26N 26°05' W 080°07'0 0.0
2014-Jul-02 10:26N 26°05' W 080°07'0 0.0
2014-Jul-02 09:31N 26°05' W 080°07'1 0.7
2014-Jul-02 08:34N 26°06' W 080°07'7 7.3
2014-Jul-02 07:33N 26°04' W 079°59'1313.2
2014-Jul-02 06:33N 25°58' W 079°46'4 3.5
2014-Jul-02 05:33N 25°55' W 079°46'3 2.6
2014-Jul-02 04:33N 25°53' W 079°48'3 2.7
2014-Jul-02 03:33N 25°50' W 079°50'3 2.9
2014-Jul-02 02:33N 25°48' W 079°51'4 3.9
2014-Jul-02 01:33N 25°45' W 079°53'4 3.7
2014-Jul-02 00:33N 25°41' W 079°55'1816.5
2014-Jul-01 23:29N 25°24' W 079°58'  

Dump ship's entire track history